createdAt,value
2018-12-13T00:01:35.800Z,22.70
2018-12-13T00:04:03.298Z,22.40
2018-12-13T00:06:33.551Z,21.17
2018-12-13T00:09:00.435Z,22.67
2018-12-13T00:11:27.949Z,20.93
2018-12-13T00:13:55.454Z,22.10
2018-12-13T00:16:22.947Z,18.33
2018-12-13T00:18:50.475Z,21.03
2018-12-13T00:21:18.001Z,24.33
2018-12-13T00:23:45.577Z,22.43
2018-12-13T00:26:13.159Z,20.77
2018-12-13T00:28:40.676Z,23.27
2018-12-13T00:31:08.194Z,21.77
2018-12-13T00:33:35.731Z,22.07
2018-12-13T00:36:03.861Z,23.80
2018-12-13T00:38:31.355Z,20.77
2018-12-13T00:40:58.878Z,19.77
2018-12-13T00:43:26.392Z,21.43
2018-12-13T00:45:53.902Z,20.50
2018-12-13T00:48:21.410Z,21.00
2018-12-13T00:50:48.922Z,21.53
2018-12-13T00:53:16.431Z,21.13
2018-12-13T00:55:43.941Z,20.17
2018-12-13T00:58:11.432Z,19.07
2018-12-13T01:00:38.966Z,18.67
2018-12-13T01:03:06.469Z,21.77
2018-12-13T01:05:33.955Z,22.50
2018-12-13T01:08:01.473Z,22.33
2018-12-13T01:10:28.982Z,20.00
2018-12-13T01:12:56.486Z,19.83
2018-12-13T01:15:25.971Z,21.27
2018-12-13T01:17:53.491Z,18.97
2018-12-13T01:20:21.073Z,21.10
2018-12-13T01:22:49.160Z,21.70
2018-12-13T01:25:16.667Z,22.33
2018-12-13T01:27:44.216Z,19.97
2018-12-13T01:30:11.710Z,23.23
2018-12-13T01:32:39.216Z,18.53
2018-12-13T01:35:06.783Z,21.40
2018-12-13T01:37:34.289Z,20.60
2018-12-13T01:40:01.784Z,19.87
2018-12-13T01:42:29.288Z,19.43
2018-12-13T01:44:56.770Z,22.53
2018-12-13T01:47:24.263Z,19.20
2018-12-13T01:49:51.847Z,20.43
2018-12-13T01:52:19.348Z,20.10
2018-12-13T01:54:46.830Z,20.73
2018-12-13T01:57:14.341Z,21.53
2018-12-13T01:59:41.841Z,21.23
2018-12-13T02:02:09.337Z,23.13
2018-12-13T02:04:36.823Z,20.57
2018-12-13T02:07:04.322Z,21.93
2018-12-13T02:09:31.880Z,25.83
2018-12-13T02:11:59.559Z,20.57
2018-12-13T02:14:27.052Z,22.33
2018-12-13T02:16:54.550Z,23.77
2018-12-13T02:19:22.045Z,24.47
2018-12-13T02:21:49.551Z,25.10
2018-12-13T02:24:17.087Z,24.90
2018-12-13T02:26:44.643Z,25.77
2018-12-13T02:29:12.154Z,23.23
2018-12-13T02:31:39.658Z,23.83
2018-12-13T02:34:07.138Z,24.50
2018-12-13T02:36:34.651Z,23.77
2018-12-13T02:39:02.165Z,23.50
2018-12-13T02:41:29.676Z,19.60
2018-12-13T02:43:57.189Z,22.93
2018-12-13T02:46:24.726Z,22.60
2018-12-13T02:49:08.925Z,20.40
2018-12-13T02:51:36.488Z,20.67
2018-12-13T02:54:04.052Z,18.47
2018-12-13T02:56:31.573Z,21.50
2018-12-13T02:58:59.191Z,19.97
2018-12-13T03:01:26.736Z,22.47
2018-12-13T03:03:54.267Z,17.13
2018-12-13T03:06:21.765Z,19.93
2018-12-13T03:08:49.263Z,17.53
2018-12-13T03:11:16.829Z,19.53
2018-12-13T03:13:44.426Z,18.17
2018-12-13T03:16:11.937Z,20.53
2018-12-13T03:18:39.475Z,18.03
2018-12-13T03:21:06.970Z,16.97
2018-12-13T03:23:34.479Z,18.33
2018-12-13T03:26:01.985Z,17.97
2018-12-13T03:28:29.575Z,17.73
2018-12-13T03:30:57.093Z,18.43
2018-12-13T03:33:24.726Z,18.73
2018-12-13T03:35:52.277Z,17.83
2018-12-13T03:38:19.896Z,19.53
2018-12-13T03:40:47.435Z,16.20
2018-12-13T03:43:15.171Z,16.73
2018-12-13T03:45:42.703Z,17.33
2018-12-13T03:48:10.339Z,17.57
2018-12-13T03:50:38.953Z,15.50
2018-12-13T03:53:06.525Z,16.87
2018-12-13T03:55:34.118Z,15.83
2018-12-13T03:58:01.835Z,16.87
2018-12-13T04:00:29.448Z,16.30
2018-12-13T04:02:57.027Z,16.03
2018-12-13T04:05:24.720Z,17.20
2018-12-13T04:07:52.227Z,16.37
2018-12-13T04:10:19.792Z,17.77
2018-12-13T04:12:47.287Z,16.43
2018-12-13T04:15:14.840Z,15.97
2018-12-13T04:17:42.519Z,18.57
2018-12-13T04:20:10.182Z,15.23
2018-12-13T04:22:37.791Z,15.47
2018-12-13T04:25:05.533Z,15.40
2018-12-13T04:27:33.040Z,15.17
2018-12-13T04:30:00.558Z,18.63
2018-12-13T04:32:28.059Z,15.53
2018-12-13T04:34:55.567Z,15.20
2018-12-13T04:37:23.063Z,15.80
2018-12-13T04:39:50.579Z,15.07
2018-12-13T04:42:18.089Z,16.67
2018-12-13T04:44:45.602Z,14.03
2018-12-13T04:47:13.119Z,15.30
2018-12-13T04:49:40.626Z,15.23
2018-12-13T04:52:08.117Z,14.57
2018-12-13T04:54:35.608Z,16.87
2018-12-13T04:57:03.109Z,18.20
2018-12-13T04:59:30.627Z,18.77
2018-12-13T05:01:58.126Z,13.43
2018-12-13T05:04:25.639Z,15.43
2018-12-13T05:06:53.282Z,18.43
2018-12-13T05:09:20.783Z,15.53
2018-12-13T05:11:48.883Z,14.90
2018-12-13T05:14:16.394Z,16.37
2018-12-13T05:16:43.874Z,15.77
2018-12-13T05:19:11.390Z,17.73
2018-12-13T05:21:38.901Z,15.90
2018-12-13T05:24:06.401Z,15.33
2018-12-13T05:26:33.894Z,18.07
2018-12-13T05:29:01.432Z,17.47
2018-12-13T05:31:28.938Z,15.83
2018-12-13T05:33:56.452Z,17.60
2018-12-13T05:36:23.973Z,16.53
2018-12-13T05:38:51.476Z,18.73
2018-12-13T05:41:18.972Z,19.27
2018-12-13T05:43:48.517Z,19.67
2018-12-13T05:46:16.074Z,18.37
2018-12-13T05:48:43.577Z,18.20
2018-12-13T05:51:11.084Z,19.90
2018-12-13T05:53:38.573Z,19.90
2018-12-13T05:56:06.084Z,21.43
2018-12-13T05:58:33.594Z,19.20
2018-12-13T06:01:01.104Z,22.43
2018-12-13T06:03:28.612Z,20.97
2018-12-13T06:05:56.118Z,19.53
2018-12-13T06:08:23.642Z,22.03
2018-12-13T06:10:51.138Z,23.90
2018-12-13T06:13:18.646Z,22.53
2018-12-13T06:15:46.232Z,22.53
2018-12-13T06:18:13.743Z,20.93
2018-12-13T06:20:41.249Z,22.47
2018-12-13T06:23:08.751Z,23.17
2018-12-13T06:25:36.289Z,21.83
2018-12-13T06:28:03.870Z,24.40
2018-12-13T06:30:31.366Z,27.27
2018-12-13T06:32:58.859Z,22.20
2018-12-13T06:35:26.407Z,25.00
2018-12-13T06:37:53.882Z,23.73
2018-12-13T06:40:21.367Z,20.60
2018-12-13T06:42:48.875Z,24.07
2018-12-13T06:45:16.691Z,25.63
2018-12-13T06:47:45.426Z,20.77
2018-12-13T06:50:12.979Z,25.63
2018-12-13T06:52:40.494Z,24.37
2018-12-13T06:55:08.006Z,26.33
2018-12-13T06:57:35.505Z,20.97
2018-12-13T07:00:04.700Z,21.77
2018-12-13T07:02:32.261Z,22.37
2018-12-13T07:04:59.775Z,24.10
2018-12-13T07:07:27.326Z,23.40
2018-12-13T07:09:54.806Z,24.30
2018-12-13T07:12:22.306Z,23.13
2018-12-13T07:14:49.807Z,24.60
2018-12-13T07:17:17.307Z,22.73
2018-12-13T07:19:44.780Z,22.73
2018-12-13T07:22:12.286Z,22.67
2018-12-13T07:24:39.791Z,22.90
2018-12-13T07:27:07.390Z,23.63
2018-12-13T07:29:34.876Z,22.33
2018-12-13T07:32:03.425Z,20.80
2018-12-13T07:34:30.938Z,20.23
2018-12-13T07:36:58.438Z,23.13
2018-12-13T07:39:25.926Z,21.23
2018-12-13T07:41:53.492Z,21.60
2018-12-13T07:44:21.302Z,21.63
2018-12-13T07:46:48.782Z,21.77
2018-12-13T07:49:16.291Z,21.07
2018-12-13T07:51:43.785Z,21.27
2018-12-13T07:54:11.354Z,20.73
2018-12-13T07:56:38.855Z,19.47
2018-12-13T07:59:06.350Z,19.20
2018-12-13T08:01:33.851Z,20.93
2018-12-13T08:04:01.467Z,17.47
2018-12-13T08:06:28.967Z,17.97
2018-12-13T08:08:56.469Z,19.27
2018-12-13T08:11:23.959Z,23.70
2018-12-13T08:13:51.523Z,20.73
2018-12-13T08:16:19.036Z,19.53
2018-12-13T08:18:46.531Z,22.50
2018-12-13T08:21:14.021Z,16.83
2018-12-13T08:23:41.507Z,17.80
2018-12-13T08:26:09.031Z,17.43
2018-12-13T08:28:36.542Z,16.80
2018-12-13T08:31:04.030Z,16.53
2018-12-13T08:33:31.565Z,16.67
2018-12-13T08:35:59.046Z,16.43
2018-12-13T08:38:27.438Z,17.47
2018-12-13T08:40:55.088Z,18.43
2018-12-13T08:43:22.596Z,17.10
2018-12-13T08:45:50.099Z,16.17
2018-12-13T08:48:17.611Z,17.40
2018-12-13T08:50:45.187Z,15.03
2018-12-13T08:53:12.710Z,15.63
2018-12-13T08:55:40.204Z,17.80
2018-12-13T08:58:07.691Z,16.87
2018-12-13T09:00:35.175Z,16.60
2018-12-13T09:03:02.679Z,17.30
2018-12-13T09:05:30.175Z,16.13
2018-12-13T09:07:57.674Z,16.93
2018-12-13T09:10:25.258Z,15.40
2018-12-13T09:12:52.853Z,17.23
2018-12-13T09:15:20.365Z,15.30
2018-12-13T09:17:48.867Z,17.23
2018-12-13T09:20:16.358Z,15.93
2018-12-13T09:22:43.858Z,15.40
2018-12-13T09:25:11.334Z,13.97
2018-12-13T09:27:38.844Z,15.53
2018-12-13T09:30:06.579Z,15.73
2018-12-13T09:32:34.071Z,15.37
2018-12-13T09:35:01.587Z,16.07
2018-12-13T09:37:29.071Z,15.37
2018-12-13T09:39:56.574Z,15.50
2018-12-13T09:42:24.328Z,17.63
2018-12-13T09:44:51.933Z,13.97
2018-12-13T09:47:19.531Z,15.17
2018-12-13T09:49:47.422Z,15.87
2018-12-13T09:52:14.948Z,17.20
2018-12-13T09:54:42.750Z,16.87
2018-12-13T09:57:10.242Z,12.23
2018-12-13T09:59:37.735Z,16.40
2018-12-13T10:02:05.234Z,16.80
2018-12-13T10:04:32.753Z,17.10
2018-12-13T10:07:00.259Z,13.07
2018-12-13T10:09:27.792Z,16.80
2018-12-13T10:11:55.301Z,13.80
2018-12-13T10:14:22.802Z,15.13
2018-12-13T10:16:50.362Z,14.80
2018-12-13T10:19:17.931Z,15.83
2018-12-13T10:21:45.452Z,14.00
2018-12-13T10:24:13.051Z,13.33
2018-12-13T10:26:40.583Z,16.70
2018-12-13T10:29:08.091Z,15.07
2018-12-13T10:31:35.599Z,16.23
2018-12-13T10:34:03.147Z,15.00
2018-12-13T10:36:30.642Z,16.80
2018-12-13T10:38:58.486Z,16.77
2018-12-13T10:41:25.991Z,14.70
2018-12-13T10:43:53.530Z,16.13
2018-12-13T10:46:21.140Z,14.70
2018-12-13T10:48:48.649Z,13.97
2018-12-13T10:51:16.145Z,14.47
2018-12-13T10:53:43.643Z,17.20
2018-12-13T10:56:11.161Z,17.20
2018-12-13T10:58:38.755Z,13.70
2018-12-13T11:01:12.041Z,14.90
2018-12-13T11:03:39.522Z,15.67
2018-12-13T11:06:07.033Z,14.93
2018-12-13T11:08:34.535Z,16.00
2018-12-13T11:11:02.039Z,15.43
2018-12-13T11:13:29.519Z,16.00
2018-12-13T11:15:57.015Z,15.03
2018-12-13T11:18:24.519Z,15.27
2018-12-13T11:20:52.035Z,15.73
2018-12-13T11:23:19.625Z,16.57
2018-12-13T11:25:47.205Z,14.67
2018-12-13T11:28:26.760Z,15.80
2018-12-13T11:30:54.259Z,14.70
2018-12-13T11:33:21.802Z,15.67
2018-12-13T11:35:49.278Z,21.30
2018-12-13T11:38:16.780Z,15.40
2018-12-13T11:40:44.286Z,15.70
2018-12-13T11:43:11.779Z,15.00
2018-12-13T11:45:39.279Z,13.37
2018-12-13T11:48:06.808Z,15.67
2018-12-13T11:50:34.292Z,15.07
2018-12-13T11:53:01.776Z,15.03
2018-12-13T11:55:34.258Z,14.73
2018-12-13T11:58:02.290Z,13.03
2018-12-13T12:00:29.995Z,14.87
2018-12-13T12:02:57.497Z,13.87
2018-12-13T12:05:24.975Z,15.10
2018-12-13T12:07:52.466Z,12.83
2018-12-13T12:10:20.003Z,15.90
2018-12-13T12:12:47.507Z,14.07
2018-12-13T12:15:15.007Z,16.83
2018-12-13T12:17:42.494Z,13.10
2018-12-13T12:20:10.108Z,14.53
2018-12-13T12:22:37.616Z,14.17
2018-12-13T12:25:05.962Z,14.07
2018-12-13T12:27:33.464Z,16.60
2018-12-13T12:30:00.946Z,15.50
2018-12-13T12:32:28.488Z,14.37
2018-12-13T12:34:55.977Z,13.53
2018-12-13T12:37:23.560Z,14.13
2018-12-13T12:39:51.043Z,14.73
2018-12-13T12:42:18.561Z,14.63
2018-12-13T12:44:47.019Z,16.80
2018-12-13T12:47:14.619Z,15.67
2018-12-13T12:49:42.140Z,15.90
2018-12-13T12:52:09.719Z,15.20
2018-12-13T12:54:37.199Z,14.93
2018-12-13T12:57:04.867Z,14.80
2018-12-13T12:59:32.379Z,14.20
2018-12-13T13:01:59.921Z,15.70
2018-12-13T13:04:27.392Z,17.53
2018-12-13T13:06:54.888Z,17.10
2018-12-13T13:09:25.236Z,16.07
2018-12-13T13:11:52.046Z,16.90
2018-12-13T13:14:19.541Z,18.37
2018-12-13T13:16:47.056Z,15.47
2018-12-13T13:19:14.582Z,20.83
2018-12-13T13:21:42.131Z,17.77
2018-12-13T13:24:09.751Z,17.57
2018-12-13T13:26:37.301Z,18.80
2018-12-13T13:29:04.780Z,18.30
2018-12-13T13:31:32.378Z,16.10
2018-12-13T13:33:59.872Z,16.43
2018-12-13T13:36:27.377Z,19.70
2018-12-13T13:38:54.899Z,17.60
2018-12-13T13:41:22.420Z,16.77
2018-12-13T13:43:50.013Z,19.50
2018-12-13T13:46:17.527Z,18.90
2018-12-13T13:48:45.039Z,18.10
2018-12-13T13:51:12.528Z,17.63
2018-12-13T13:53:40.041Z,18.73
2018-12-13T13:56:07.521Z,18.17
2018-12-13T13:58:35.519Z,18.27
2018-12-13T14:01:03.150Z,17.97
2018-12-13T14:03:30.652Z,18.80
2018-12-13T14:05:58.159Z,16.13
2018-12-13T14:08:25.790Z,18.30
2018-12-13T14:10:53.293Z,17.37
2018-12-13T14:13:20.835Z,16.87
2018-12-13T14:15:48.344Z,17.97
2018-12-13T14:18:16.282Z,18.83
2018-12-13T14:20:43.799Z,16.83
2018-12-13T14:23:11.327Z,17.37
2018-12-13T14:25:38.811Z,17.83
2018-12-13T14:28:06.389Z,19.27
2018-12-13T14:30:34.029Z,20.17
2018-12-13T14:33:01.536Z,18.70
2018-12-13T14:35:29.030Z,17.93
2018-12-13T14:37:56.697Z,19.30
2018-12-13T14:40:24.483Z,20.23
2018-12-13T14:42:52.012Z,20.27
2018-12-13T14:45:19.511Z,23.10
2018-12-13T14:47:47.027Z,23.20
2018-12-13T14:50:14.554Z,24.57
2018-12-13T14:52:42.063Z,23.03
2018-12-13T14:55:09.592Z,20.67
2018-12-13T14:57:37.436Z,22.33
2018-12-13T15:00:06.686Z,24.73
2018-12-13T15:02:34.320Z,21.47
2018-12-13T15:05:01.916Z,20.97
2018-12-13T15:07:29.405Z,19.57
2018-12-13T15:09:56.906Z,21.83
2018-12-13T15:12:25.462Z,24.37
2018-12-13T15:14:52.953Z,20.37
2018-12-13T15:17:20.475Z,22.70
2018-12-13T15:19:47.952Z,21.40
2018-12-13T15:22:15.451Z,22.10
2018-12-13T15:24:43.009Z,20.00
2018-12-13T15:27:10.559Z,22.00
2018-12-13T15:29:38.027Z,23.97
2018-12-13T15:32:06.394Z,19.93
2018-12-13T15:34:33.906Z,23.43
2018-12-13T15:37:01.425Z,20.57
2018-12-13T15:39:28.943Z,23.70
2018-12-13T15:41:56.454Z,21.57
2018-12-13T15:44:24.039Z,22.93
2018-12-13T15:46:52.008Z,23.03
2018-12-13T15:49:20.174Z,24.37
2018-12-13T15:51:47.711Z,24.27
2018-12-13T15:54:15.266Z,26.63
2018-12-13T15:56:42.926Z,24.13
2018-12-13T15:59:10.438Z,25.23
2018-12-13T16:01:37.945Z,25.20
2018-12-13T16:04:05.512Z,24.57
2018-12-13T16:06:32.996Z,24.77
2018-12-13T16:09:00.543Z,24.83
2018-12-13T16:11:28.036Z,23.90
2018-12-13T16:13:55.532Z,25.27
2018-12-13T16:16:23.053Z,24.17
2018-12-13T16:18:50.612Z,23.20
2018-12-13T16:21:18.123Z,23.80
2018-12-13T16:23:45.627Z,22.23
2018-12-13T16:26:13.233Z,26.17
2018-12-13T16:28:40.739Z,28.63
2018-12-13T16:31:08.232Z,24.40
2018-12-13T16:33:35.779Z,25.53
2018-12-13T16:36:03.292Z,24.60
2018-12-13T16:38:30.921Z,22.17
2018-12-13T16:40:59.598Z,22.77
2018-12-13T16:43:27.117Z,23.37
2018-12-13T16:45:54.614Z,23.37
2018-12-13T16:48:22.129Z,24.47
2018-12-13T16:50:49.716Z,25.87
2018-12-13T16:53:17.255Z,25.67
2018-12-13T16:55:44.777Z,21.37
2018-12-13T16:58:12.282Z,23.60
2018-12-13T17:00:39.796Z,22.57
2018-12-13T17:03:17.891Z,21.97
2018-12-13T17:05:45.424Z,20.47
2018-12-13T17:08:12.943Z,22.63
2018-12-13T17:10:40.440Z,17.87
2018-12-13T17:13:07.950Z,19.33
2018-12-13T17:15:35.535Z,23.37
2018-12-13T17:18:03.045Z,18.97
2018-12-13T17:20:30.554Z,20.07
2018-12-13T17:22:58.064Z,19.63
2018-12-13T17:25:25.563Z,20.87
2018-12-13T17:27:53.079Z,19.60
2018-12-13T17:30:20.559Z,18.40
2018-12-13T17:32:48.064Z,19.57
2018-12-13T17:35:15.563Z,18.33
2018-12-13T17:37:43.079Z,19.60
2018-12-13T17:40:10.567Z,18.93
2018-12-13T17:42:38.066Z,21.03
2018-12-13T17:45:05.932Z,17.40
2018-12-13T17:47:34.874Z,17.67
2018-12-13T17:50:02.417Z,20.33
2018-12-13T17:52:29.903Z,19.23
2018-12-13T17:54:57.397Z,17.10
2018-12-13T17:57:24.882Z,18.73
2018-12-13T17:59:52.371Z,17.47
2018-12-13T18:02:19.889Z,19.50
2018-12-13T18:04:47.400Z,18.17
2018-12-13T18:07:14.974Z,15.90
2018-12-13T18:09:42.462Z,16.40
2018-12-13T18:12:09.993Z,18.97
2018-12-13T18:14:37.479Z,16.03
2018-12-13T18:17:04.996Z,14.17
2018-12-13T18:19:32.498Z,14.70
2018-12-13T18:22:00.029Z,17.20
2018-12-13T18:24:27.526Z,15.40
2018-12-13T18:26:55.113Z,13.63
2018-12-13T18:29:22.617Z,16.33
2018-12-13T18:31:50.114Z,14.67
2018-12-13T18:34:17.613Z,16.07
2018-12-13T18:36:45.125Z,15.13
2018-12-13T18:39:12.754Z,16.23
2018-12-13T18:41:40.285Z,14.93
2018-12-13T18:44:07.798Z,16.03
2018-12-13T18:46:35.362Z,17.17
2018-12-13T18:49:02.850Z,16.20
2018-12-13T18:51:45.415Z,15.13
2018-12-13T18:54:12.918Z,14.10
2018-12-13T18:56:40.486Z,16.03
2018-12-13T18:59:07.976Z,15.83
2018-12-13T19:01:35.510Z,15.67
2018-12-13T19:04:03.017Z,14.50
2018-12-13T19:06:30.793Z,17.53
2018-12-13T19:08:58.332Z,17.97
2018-12-13T19:11:25.894Z,16.07
2018-12-13T19:13:53.410Z,17.57
2018-12-13T19:16:20.941Z,18.87
2018-12-13T19:18:48.467Z,16.83
2018-12-13T19:21:16.004Z,18.47
2018-12-13T19:23:43.518Z,16.83
2018-12-13T19:26:11.028Z,22.90
2018-12-13T19:28:38.547Z,18.20
2018-12-13T19:31:06.016Z,18.90
2018-12-13T19:33:33.538Z,17.47
2018-12-13T19:36:01.036Z,19.77
2018-12-13T19:38:28.546Z,16.37
2018-12-13T19:40:56.039Z,16.00
2018-12-13T19:43:23.633Z,15.77
2018-12-13T19:45:51.117Z,16.83
2018-12-13T19:48:18.613Z,17.03
2018-12-13T19:50:46.412Z,17.47
2018-12-13T19:53:14.088Z,16.37
2018-12-13T19:55:41.595Z,16.97
2018-12-13T19:58:09.099Z,19.27
2018-12-13T20:00:36.579Z,16.50
2018-12-13T20:03:04.079Z,17.63
2018-12-13T20:05:31.661Z,16.03
2018-12-13T20:07:59.149Z,15.40
2018-12-13T20:10:26.664Z,17.27
2018-12-13T20:12:54.158Z,18.80
2018-12-13T20:15:24.263Z,16.73
2018-12-13T20:17:51.159Z,18.27
2018-12-13T20:20:18.656Z,14.37
2018-12-13T20:22:46.159Z,21.73
2018-12-13T20:25:13.654Z,16.17
2018-12-13T20:27:41.146Z,15.60
2018-12-13T20:30:08.824Z,15.50
2018-12-13T20:32:36.391Z,16.40
2018-12-13T20:35:04.732Z,16.70
2018-12-13T20:37:32.318Z,17.47
2018-12-13T20:39:59.810Z,16.57
2018-12-13T20:42:27.308Z,16.53
2018-12-13T20:44:54.792Z,17.83
2018-12-13T20:47:22.317Z,17.10
2018-12-13T20:49:49.815Z,15.87
2018-12-13T20:52:17.345Z,16.70
2018-12-13T20:54:44.860Z,15.30
2018-12-13T20:57:12.333Z,16.53
2018-12-13T20:59:39.837Z,15.73
2018-12-13T21:02:07.335Z,13.20
2018-12-13T21:04:34.833Z,16.17
2018-12-13T21:07:07.938Z,15.67
2018-12-13T21:09:35.428Z,14.43
2018-12-13T21:12:02.933Z,14.20
2018-12-13T21:14:30.427Z,15.20
2018-12-13T21:17:00.097Z,14.23
2018-12-13T21:19:27.433Z,14.00
2018-12-13T21:21:55.018Z,15.77
2018-12-13T21:24:22.987Z,15.43
2018-12-13T21:26:51.699Z,16.07
2018-12-13T21:29:19.189Z,14.57
2018-12-13T21:31:46.694Z,14.93
2018-12-13T21:34:14.212Z,14.07
2018-12-13T21:36:41.728Z,16.67
2018-12-13T21:39:09.211Z,14.93
2018-12-13T21:41:36.695Z,15.23
2018-12-13T21:44:04.264Z,14.13
2018-12-13T21:46:31.762Z,14.80
2018-12-13T21:48:59.276Z,15.20
2018-12-13T21:51:26.795Z,15.17
2018-12-13T21:53:54.268Z,15.37
2018-12-13T21:56:21.767Z,17.03
2018-12-13T21:58:49.336Z,14.07
2018-12-13T22:01:16.843Z,15.90
2018-12-13T22:03:44.318Z,15.03
2018-12-13T22:06:11.814Z,18.53
2018-12-13T22:08:39.306Z,14.40
2018-12-13T22:11:06.779Z,14.43
2018-12-13T22:13:34.272Z,15.23
2018-12-13T22:16:01.746Z,14.70
2018-12-13T22:18:29.247Z,14.87
2018-12-13T22:20:57.052Z,13.30
2018-12-13T22:23:24.575Z,14.17
2018-12-13T22:25:52.165Z,14.13
2018-12-13T22:28:19.659Z,14.53
2018-12-13T22:30:47.151Z,13.60
2018-12-13T22:33:14.649Z,13.90
2018-12-13T22:35:42.175Z,14.40
2018-12-13T22:38:09.660Z,13.20
2018-12-13T22:40:37.154Z,13.40
2018-12-13T22:43:04.724Z,12.17
2018-12-13T22:45:32.237Z,15.53
2018-12-13T22:47:59.805Z,13.00
2018-12-13T22:50:27.338Z,12.87
2018-12-13T22:52:54.907Z,13.53
2018-12-13T22:55:22.502Z,13.17
2018-12-13T22:57:50.064Z,13.87
2018-12-13T23:00:17.759Z,15.20
2018-12-13T23:02:45.358Z,13.87
2018-12-13T23:05:12.859Z,15.03
2018-12-13T23:07:40.511Z,12.47
2018-12-13T23:10:08.184Z,12.70
2018-12-13T23:12:35.686Z,13.70
2018-12-13T23:15:03.746Z,12.20
2018-12-13T23:17:31.324Z,12.57
2018-12-13T23:19:58.965Z,12.00
2018-12-13T23:22:26.481Z,11.97
2018-12-13T23:24:53.971Z,12.30
2018-12-13T23:27:21.493Z,14.40
2018-12-13T23:29:49.082Z,12.23
2018-12-13T23:32:16.566Z,12.60
2018-12-13T23:34:44.081Z,11.20
2018-12-13T23:37:11.593Z,12.27
2018-12-13T23:39:39.102Z,12.83
2018-12-13T23:42:06.586Z,12.23
2018-12-13T23:44:34.080Z,13.20
2018-12-13T23:47:01.775Z,11.97
2018-12-13T23:49:29.259Z,12.23
2018-12-13T23:51:56.779Z,11.60
2018-12-13T23:54:24.289Z,11.63
2018-12-13T23:56:51.806Z,13.37
2018-12-13T23:59:19.334Z,13.40
